Time;durP1;ratioP1;P1;durP2;ratioP2;P2;SDS_P1;SDS_P2;PMS_P1;PMS_P2;Temp;Humidity;BMP_temperature;BMP_pressure;BME280_temperature;BME280_humidity;BME280_pressure;Samples;Min_cycle;Max_cycle;Signal;HPM_P1;HPM_P2
2021/12/15 00:00:41;;;;;;;3.75;3.00;;;11.10;53.00;;;;;;5034446;28;20258;-49
2021/12/15 00:03:09;;;;;;;2.35;2.15;;;11.10;53.00;;;;;;5000923;28;20194;-48
2021/12/15 00:05:40;;;;;;;3.95;2.95;;;11.10;52.90;;;;;;5016938;28;20168;-48
2021/12/15 00:08:11;;;;;;;4.78;4.28;;;11.10;52.90;;;;;;5034350;28;20682;-48
2021/12/15 00:10:45;;;;;;;6.15;3.30;;;11.10;52.80;;;;;;5033989;28;20619;-48
2021/12/15 00:13:14;;;;;;;6.20;3.40;;;11.10;52.80;;;;;;5017393;28;20146;-48
2021/12/15 00:15:44;;;;;;;6.15;3.15;;;11.10;52.90;;;;;;4984916;28;20174;-48
2021/12/15 00:18:12;;;;;;;5.68;3.50;;;11.10;52.80;;;;;;5034316;28;20261;-49
2021/12/15 00:20:42;;;;;;;7.30;4.10;;;11.10;52.80;;;;;;5033881;28;20178;-48
2021/12/15 00:23:09;;;;;;;6.18;5.40;;;11.10;52.80;;;;;;5017024;28;20595;-49
2021/12/15 00:25:40;;;;;;;3.55;2.50;;;11.10;52.80;;;;;;5015605;28;20615;-48
2021/12/15 00:28:08;;;;;;;5.82;3.20;;;11.10;52.80;;;;;;5034235;28;20193;-48
2021/12/15 00:30:36;;;;;;;7.82;3.85;;;11.20;52.70;;;;;;5016882;28;20224;-48
2021/12/15 00:33:07;;;;;;;12.77;4.10;;;11.20;52.70;;;;;;5016588;28;20177;-49
2021/12/15 00:35:35;;;;;;;6.07;3.08;;;11.20;52.60;;;;;;5016673;28;20177;-49
2021/12/15 00:38:05;;;;;;;10.90;3.80;;;11.10;52.60;;;;;;5033994;28;20201;-48
2021/12/15 00:40:33;;;;;;;5.85;3.85;;;11.10;52.70;;;;;;5000706;28;20633;-48
2021/12/15 00:43:02;;;;;;;5.55;3.20;;;11.20;52.70;;;;;;5016512;28;20174;-48
2021/12/15 00:45:29;;;;;;;3.97;2.67;;;11.10;52.60;;;;;;4942833;28;2635055;-48
2021/12/15 00:47:57;;;;;;;5.90;2.53;;;11.10;52.60;;;;;;5034781;28;20630;-48
2021/12/15 00:50:28;;;;;;;6.57;3.22;;;11.10;52.70;;;;;;5017276;28;20182;-49
2021/12/15 00:52:56;;;;;;;7.07;3.53;;;11.10;52.70;;;;;;5017477;28;20236;-49
2021/12/15 00:55:27;;;;;;;6.75;3.67;;;11.10;52.60;;;;;;5034504;28;20507;-48
2021/12/15 00:57:55;;;;;;;3.08;2.20;;;11.10;52.60;;;;;;5017994;28;20263;-48
2021/12/15 01:00:30;;;;;;;9.52;6.50;;;11.10;52.70;;;;;;5017261;28;20214;-48
2021/12/15 01:02:59;;;;;;;3.42;2.33;;;11.10;52.60;;;;;;5017550;28;20162;-48
2021/12/15 01:05:34;;;;;;;6.35;3.88;;;11.10;52.70;;;;;;5034544;28;20487;-49
2021/12/15 01:08:07;;;;;;;7.32;4.57;;;11.10;52.80;;;;;;5017333;28;20558;-49
2021/12/15 01:10:53;;;;;;;5.97;4.22;;;11.10;52.80;;;;;;5001550;28;20173;-48
2021/12/15 01:21:39;;;;;;;10.15;4.88;;;11.00;52.80;;;;;;5034317;28;20169;-48
2021/12/15 01:24:07;;;;;;;3.10;2.38;;;11.00;52.80;;;;;;5001036;28;20173;-48
2021/12/15 01:26:35;;;;;;;11.38;5.95;;;10.90;52.80;;;;;;5017220;28;20178;-48
2021/12/15 01:29:04;;;;;;;6.13;4.40;;;11.00;52.80;;;;;;5034361;28;20178;-49
2021/12/15 01:31:31;;;;;;;8.15;5.65;;;11.00;52.90;;;;;;5034193;28;20167;-49
2021/12/15 01:33:59;;;;;;;9.38;3.88;;;11.00;52.90;;;;;;5034234;28;20185;-48
2021/12/15 01:36:27;;;;;;;4.05;3.03;;;11.00;52.80;;;;;;5034033;28;20182;-49
2021/12/15 01:38:54;;;;;;;9.13;4.25;;;11.00;52.90;;;;;;5037411;28;20169;-48
2021/12/15 01:41:23;;;;;;;5.05;3.83;;;11.00;52.90;;;;;;5020368;28;20610;-48
2021/12/15 01:47:03;;;;;;;5.60;3.72;;;11.00;52.80;;;;;;5040747;28;20252;-48
2021/12/15 01:49:44;;;;;;;7.10;5.22;;;11.00;52.80;;;;;;5040535;28;20174;-48
2021/12/15 01:52:16;;;;;;;5.00;3.22;;;11.00;52.80;;;;;;5040853;28;20150;-48
2021/12/15 01:54:50;;;;;;;6.82;4.55;;;11.00;52.80;;;;;;5057335;28;20311;-49
2021/12/15 01:57:20;;;;;;;11.27;6.65;;;11.00;52.80;;;;;;5039831;28;20225;-48
2021/12/15 01:59:49;;;;;;;7.75;5.18;;;10.90;52.90;;;;;;5057237;28;20594;-48
2021/12/15 02:02:18;;;;;;;6.80;4.18;;;10.90;52.90;;;;;;5057396;28;20169;-48
2021/12/15 02:04:46;;;;;;;6.32;4.07;;;10.90;53.10;;;;;;5040396;28;20181;-48
2021/12/15 02:07:16;;;;;;;6.57;5.07;;;10.90;53.10;;;;;;5056211;28;20166;-49
2021/12/15 02:12:24;;;;;;;7.65;3.70;;;10.90;53.20;;;;;;5041013;28;20157;-48
2021/12/15 02:14:52;;;;;;;5.45;2.92;;;10.90;53.10;;;;;;5057091;28;20173;-48
2021/12/15 02:17:21;;;;;;;10.63;6.22;;;10.90;53.00;;;;;;5055875;28;20212;-48
2021/12/15 02:19:49;;;;;;;8.43;4.50;;;11.00;53.00;;;;;;5057106;28;20177;-49
2021/12/15 02:22:16;;;;;;;6.20;4.28;;;11.00;52.80;;;;;;5039722;28;20157;-48
2021/12/15 02:24:47;;;;;;;12.60;6.50;;;11.00;52.90;;;;;;5056917;28;20497;-49
2021/12/15 02:27:15;;;;;;;12.32;4.53;;;11.00;52.90;;;;;;5055763;28;20172;-49
2021/12/15 02:29:46;;;;;;;12.90;7.50;;;11.00;53.00;;;;;;5055975;28;20178;-48
2021/12/15 02:32:47;;;;;;;7.82;5.10;;;11.00;52.90;;;;;;5055893;28;20173;-49
2021/12/15 02:38:00;;;;;;;6.05;3.80;;;11.00;52.90;;;;;;5056653;28;20640;-48
2021/12/15 02:40:29;;;;;;;8.00;4.35;;;10.90;52.90;;;;;;5055599;28;20157;-49
2021/12/15 02:42:56;;;;;;;4.82;3.83;;;10.90;52.90;;;;;;5056482;28;20172;-48
2021/12/15 02:45:24;;;;;;;5.20;2.78;;;10.90;52.80;;;;;;5038786;28;20282;-49
2021/12/15 02:47:53;;;;;;;6.53;4.53;;;10.90;52.90;;;;;;5055588;28;20172;-49
2021/12/15 02:50:25;;;;;;;11.52;4.97;;;10.90;52.90;;;;;;5054744;28;20186;-49
2021/12/15 02:52:53;;;;;;;6.68;3.80;;;10.90;52.90;;;;;;5055577;28;20310;-48
2021/12/15 02:55:21;;;;;;;4.63;3.53;;;10.90;52.90;;;;;;5055293;28;20598;-48
2021/12/15 02:57:52;;;;;;;6.38;3.88;;;10.80;52.90;;;;;;5055326;28;20201;-48
2021/12/15 03:00:23;;;;;;;8.60;5.00;;;10.80;53.00;;;;;;5056117;28;20575;-48
2021/12/15 03:06:00;;;;;;;3.88;2.63;;;10.70;53.10;;;;;;5032181;28;20633;-49
2021/12/15 03:08:54;;;;;;;9.75;3.60;;;10.80;53.10;;;;;;5055360;28;20192;-48
2021/12/15 03:17:00;;;;;;;3.78;2.92;;;10.80;52.70;;;;;;5056137;28;20203;-49
2021/12/15 03:19:28;;;;;;;7.30;3.67;;;10.90;52.70;;;;;;5055347;28;20177;-49
2021/12/15 03:21:56;;;;;;;4.25;2.20;;;10.90;52.70;;;;;;5055827;28;20491;-48
2021/12/15 03:24:26;;;;;;;3.35;2.03;;;10.90;52.50;;;;;;5055036;28;20162;-49
2021/12/15 03:27:06;;;;;;;7.25;4.57;;;11.00;52.50;;;;;;5055000;28;20157;-49
2021/12/15 03:37:27;;;;;;;3.13;2.50;;;11.10;52.40;;;;;;5055399;28;20195;-49
2021/12/15 03:40:00;;;;;;;5.85;2.95;;;11.10;52.30;;;;;;5054607;28;20223;-49
2021/12/15 03:42:39;;;;;;;4.63;2.85;;;11.10;52.30;;;;;;5054784;28;20173;-49
2021/12/15 03:45:10;;;;;;;8.07;4.53;;;11.10;52.20;;;;;;5022820;28;20221;-49
2021/12/15 03:47:45;;;;;;;6.50;3.50;;;11.10;52.30;;;;;;5054697;28;20233;-49
2021/12/15 03:50:14;;;;;;;3.00;2.20;;;11.00;52.20;;;;;;5055207;28;20525;-49
2021/12/15 03:52:43;;;;;;;6.05;3.47;;;11.00;52.10;;;;;;5038326;28;20173;-48
2021/12/15 03:55:11;;;;;;;8.20;2.75;;;11.10;52.10;;;;;;5055123;28;20223;-48
2021/12/15 03:57:39;;;;;;;3.33;2.45;;;11.00;51.70;;;;;;5054075;28;20199;-49
2021/12/15 04:00:08;;;;;;;4.75;2.60;;;11.00;51.60;;;;;;5054190;28;20468;-49
2021/12/15 04:02:36;;;;;;;2.90;1.90;;;11.00;51.90;;;;;;5055074;28;20164;-48
2021/12/15 04:05:05;;;;;;;1.70;1.17;;;11.00;50.90;;;;;;5055109;28;20165;-48
2021/12/15 04:07:33;;;;;;;3.10;2.17;;;11.00;51.40;;;;;;5037827;28;20240;-48
2021/12/15 04:10:00;;;;;;;4.22;1.75;;;11.00;51.50;;;;;;5055069;28;20195;-48
2021/12/15 04:12:28;;;;;;;3.00;1.60;;;11.10;51.50;;;;;;5054835;28;20610;-48
2021/12/15 04:15:07;;;;;;;3.78;1.92;;;11.00;51.30;;;;;;5037291;28;20173;-49
2021/12/15 04:17:36;;;;;;;4.80;2.70;;;11.00;51.40;;;;;;5054885;28;20200;-48
2021/12/15 04:20:16;;;;;;;2.83;1.50;;;11.10;51.40;;;;;;5054167;28;20164;-48
2021/12/15 04:22:44;;;;;;;3.75;2.22;;;11.10;51.30;;;;;;5053861;28;20157;-49
2021/12/15 04:25:17;;;;;;;5.63;3.60;;;11.10;51.30;;;;;;5054938;28;20235;-48
2021/12/15 04:28:01;;;;;;;2.70;1.33;;;11.10;51.40;;;;;;5037905;28;20157;-48
2021/12/15 04:30:33;;;;;;;5.75;2.30;;;11.20;51.10;;;;;;5053836;28;20157;-48
2021/12/15 04:33:13;;;;;;;3.00;2.00;;;11.20;51.10;;;;;;5037586;28;20161;-48
2021/12/15 04:35:43;;;;;;;2.65;2.30;;;11.20;51.20;;;;;;5054926;28;20179;-48
2021/12/15 04:38:13;;;;;;;4.75;2.20;;;11.20;51.10;;;;;;5053585;28;20526;-48
2021/12/15 04:40:41;;;;;;;5.20;2.10;;;11.20;51.10;;;;;;5037656;28;20192;-48
2021/12/15 04:43:08;;;;;;;3.30;1.85;;;11.20;51.00;;;;;;5053710;28;20256;-48
2021/12/15 04:45:36;;;;;;;4.05;1.90;;;11.20;51.10;;;;;;5053730;28;20213;-48
2021/12/15 04:48:04;;;;;;;3.65;1.95;;;11.20;51.10;;;;;;5036977;28;20232;-49
2021/12/15 04:50:32;;;;;;;6.57;2.42;;;11.20;51.10;;;;;;5053633;28;20165;-49
2021/12/15 04:53:02;;;;;;;3.03;1.38;;;11.20;51.00;;;;;;5037512;28;20645;-49
2021/12/15 04:55:33;;;;;;;5.35;2.42;;;11.10;50.50;;;;;;5054360;28;20177;-48
2021/12/15 04:58:03;;;;;;;2.05;1.45;;;11.10;50.80;;;;;;5053797;28;20209;-48
2021/12/15 05:00:41;;;;;;;2.75;1.85;;;11.10;50.50;;;;;;5054539;28;20195;-49
2021/12/15 05:03:08;;;;;;;4.93;1.38;;;11.10;49.90;;;;;;5037806;28;20150;-48
2021/12/15 05:05:37;;;;;;;5.55;2.45;;;11.10;50.00;;;;;;5053515;28;20197;-49
2021/12/15 05:08:07;;;;;;;2.50;2.30;;;11.20;50.40;;;;;;5053395;28;20170;-48
2021/12/15 05:10:36;;;;;;;6.00;3.58;;;11.20;50.50;;;;;;5053605;28;20197;-48
2021/12/15 05:13:05;;;;;;;2.25;1.27;;;11.20;50.20;;;;;;5056677;28;20173;-48
2021/12/15 05:15:33;;;;;;;3.10;2.03;;;11.20;50.20;;;;;;5057561;28;20178;-49
2021/12/15 05:18:01;;;;;;;2.78;2.00;;;11.20;50.20;;;;;;5058264;28;20262;-49
2021/12/15 05:20:28;;;;;;;3.47;1.88;;;11.30;50.20;;;;;;5058175;28;20168;-49
2021/12/15 05:22:56;;;;;;;2.95;1.85;;;11.30;50.20;;;;;;5057176;28;20173;-48
2021/12/15 05:25:23;;;;;;;2.53;1.65;;;11.30;50.20;;;;;;5058125;28;20164;-48
2021/12/15 05:27:51;;;;;;;2.90;1.73;;;11.30;50.90;;;;;;5057888;28;20260;-48
2021/12/15 05:30:19;;;;;;;3.55;2.35;;;11.30;50.20;;;;;;5056891;28;20161;-49
2021/12/15 05:32:48;;;;;;;6.03;2.10;;;11.20;50.20;;;;;;5057698;28;20169;-48
2021/12/15 05:35:21;;;;;;;5.80;3.00;;;11.20;50.30;;;;;;5057585;28;20498;-49
2021/12/15 05:37:58;;;;;;;2.80;2.47;;;11.20;50.10;;;;;;5057582;28;20208;-49
2021/12/15 05:40:27;;;;;;;4.38;1.95;;;11.20;50.10;;;;;;5057680;28;20227;-48
2021/12/15 05:42:58;;;;;;;4.22;2.42;;;11.20;49.90;;;;;;5057627;28;20663;-48
2021/12/15 05:45:35;;;;;;;2.20;2.00;;;11.20;50.80;;;;;;5040706;28;20241;-49
2021/12/15 05:48:07;;;;;;;4.07;1.70;;;11.20;50.20;;;;;;5057779;28;20234;-48
2021/12/15 05:50:35;;;;;;;3.38;1.60;;;11.20;50.20;;;;;;5056955;28;20168;-49
2021/12/15 05:53:04;;;;;;;2.60;1.73;;;11.20;49.60;;;;;;5056483;28;20248;-48
2021/12/15 05:55:34;;;;;;;2.63;1.58;;;11.10;49.70;;;;;;5057323;28;20181;-48
2021/12/15 05:58:04;;;;;;;3.90;1.85;;;11.10;49.80;;;;;;5057216;28;20200;-49
2021/12/15 06:00:40;;;;;;;2.83;1.65;;;11.10;49.70;;;;;;5057313;28;20181;-48
2021/12/15 06:03:08;;;;;;;3.03;1.95;;;11.10;49.40;;;;;;5056843;28;20590;-49
2021/12/15 06:05:36;;;;;;;2.20;1.65;;;11.10;49.20;;;;;;5057099;28;20603;-48
2021/12/15 06:08:05;;;;;;;3.95;2.50;;;11.10;49.00;;;;;;5057159;28;20581;-48
2021/12/15 06:10:35;;;;;;;4.57;2.25;;;11.10;49.30;;;;;;5056268;28;20172;-48
2021/12/15 06:13:11;;;;;;;2.05;1.52;;;11.00;49.00;;;;;;5057213;28;20180;-49
2021/12/15 06:15:40;;;;;;;3.28;2.20;;;11.00;49.20;;;;;;5056011;28;20153;-48
2021/12/15 06:18:11;;;;;;;3.63;2.00;;;11.00;49.30;;;;;;5057323;28;20511;-49
2021/12/15 06:20:39;;;;;;;2.60;2.38;;;11.00;49.40;;;;;;5056109;28;20157;-48
2021/12/15 06:23:17;;;;;;;5.47;2.72;;;11.10;49.60;;;;;;5039612;28;20180;-48
2021/12/15 06:25:46;;;;;;;3.55;2.38;;;11.10;49.60;;;;;;5055760;28;20223;-48
2021/12/15 06:28:14;;;;;;;4.38;2.70;;;11.10;49.70;;;;;;5056644;28;20173;-48
2021/12/15 06:30:44;;;;;;;5.47;3.95;;;11.10;49.40;;;;;;5056702;28;20265;-49
2021/12/15 06:33:13;;;;;;;4.07;1.75;;;11.10;49.30;;;;;;5055626;28;20173;-48
2021/12/15 06:35:41;;;;;;;3.63;1.77;;;11.20;49.50;;;;;;5039387;28;20170;-49
2021/12/15 06:38:08;;;;;;;4.80;2.15;;;11.20;49.60;;;;;;5055745;28;20203;-48
2021/12/15 06:40:36;;;;;;;7.30;3.03;;;11.20;49.60;;;;;;5072317;28;20161;-48
2021/12/15 06:43:04;;;;;;;4.70;2.67;;;11.30;49.60;;;;;;5055510;28;20172;-48
2021/12/15 06:45:38;;;;;;;4.35;2.35;;;11.30;49.60;;;;;;5039012;28;20220;-49
2021/12/15 06:59:08;;;;;;;2.33;1.83;;;11.20;49.60;;;;;;5055882;28;20180;-48
2021/12/15 07:01:35;;;;;;;2.80;2.13;;;11.30;49.60;;;;;;5056231;28;20188;-48
2021/12/15 07:04:03;;;;;;;2.92;1.70;;;11.20;49.50;;;;;;5055134;28;20273;-49
2021/12/15 07:06:30;;;;;;;4.47;2.20;;;11.20;49.60;;;;;;5071679;28;20228;-49
2021/12/15 07:08:57;;;;;;;2.15;1.80;;;11.30;49.70;;;;;;5055503;28;20165;-48
2021/12/15 07:11:25;;;;;;;4.80;2.03;;;11.30;49.50;;;;;;5055842;28;20165;-48
2021/12/15 07:13:53;;;;;;;3.10;1.92;;;11.30;49.70;;;;;;5055822;28;20227;-49
2021/12/15 07:16:20;;;;;;;3.67;1.88;;;11.30;49.70;;;;;;5055616;28;20280;-48
2021/12/15 07:19:04;;;;;;;4.65;3.05;;;11.30;49.80;;;;;;5056032;28;20174;-48
2021/12/15 07:21:36;;;;;;;2.78;1.73;;;11.30;49.70;;;;;;5054662;28;20495;-49
2021/12/15 07:24:03;;;;;;;4.53;3.10;;;11.30;49.70;;;;;;5055690;28;20219;-48
2021/12/15 07:26:31;;;;;;;3.03;2.15;;;11.30;49.70;;;;;;5055416;28;20166;-49
2021/12/15 07:28:59;;;;;;;3.65;1.83;;;11.30;49.70;;;;;;5054622;28;20167;-48
2021/12/15 07:31:26;;;;;;;3.22;1.70;;;11.30;49.70;;;;;;5054810;28;20180;-48
2021/12/15 07:33:54;;;;;;;2.97;1.92;;;11.30;49.70;;;;;;5055458;28;20630;-48
2021/12/15 07:36:22;;;;;;;3.88;2.50;;;11.30;49.50;;;;;;5054820;28;20682;-48
2021/12/15 07:38:49;;;;;;;13.90;2.65;;;11.30;49.70;;;;;;5055385;28;20161;-48
2021/12/15 07:41:37;;;;;;;3.40;2.05;;;11.40;49.50;;;;;;5055485;28;20240;-49
2021/12/15 07:44:06;;;;;;;4.90;3.28;;;11.40;49.60;;;;;;5040472;28;20569;-48
2021/12/15 07:46:35;;;;;;;2.95;1.92;;;11.40;49.30;;;;;;5038017;28;20217;-49
2021/12/15 07:49:03;;;;;;;4.28;2.65;;;11.40;49.50;;;;;;5055283;28;20618;-48
2021/12/15 07:51:30;;;;;;;5.65;2.58;;;11.40;49.50;;;;;;5054464;28;20165;-49
2021/12/15 07:53:57;;;;;;;6.00;2.47;;;11.40;49.60;;;;;;5055002;28;20178;-49
2021/12/15 07:56:25;;;;;;;3.78;2.33;;;11.40;49.60;;;;;;5054110;28;20270;-48
2021/12/15 07:58:52;;;;;;;4.43;2.35;;;11.50;49.50;;;;;;5055282;28;20165;-49
2021/12/15 08:01:20;;;;;;;3.53;1.73;;;11.50;49.70;;;;;;5055078;28;20263;-48
2021/12/15 08:03:51;;;;;;;3.53;1.90;;;11.50;49.70;;;;;;5021249;28;20598;-48
2021/12/15 08:06:19;;;;;;;3.17;1.90;;;11.60;49.60;;;;;;5055047;28;20222;-48
2021/12/15 08:08:47;;;;;;;2.05;1.35;;;11.60;49.60;;;;;;5054858;28;20169;-49
2021/12/15 08:11:15;;;;;;;4.47;2.20;;;11.60;49.50;;;;;;5053993;28;20173;-49
2021/12/15 08:13:43;;;;;;;3.10;1.48;;;11.60;49.30;;;;;;5054019;28;20176;-48
2021/12/15 08:16:11;;;;;;;4.80;1.30;;;11.60;49.50;;;;;;5054741;28;20165;-48
2021/12/15 08:18:38;;;;;;;2.72;1.42;;;11.70;49.20;;;;;;5053933;28;20165;-48
2021/12/15 08:21:06;;;;;;;4.53;1.83;;;11.70;49.10;;;;;;5054602;28;20231;-48
2021/12/15 08:23:33;;;;;;;2.17;1.65;;;11.70;49.40;;;;;;5054633;28;20170;-49
2021/12/15 08:26:01;;;;;;;2.00;1.30;;;11.70;49.10;;;;;;5054591;28;20500;-48
2021/12/15 08:28:29;;;;;;;2.80;1.42;;;11.70;49.20;;;;;;5037323;28;20223;-49
2021/12/15 08:30:59;;;;;;;3.05;2.53;;;11.70;49.30;;;;;;5053763;28;20165;-49
2021/12/15 08:33:27;;;;;;;6.90;2.95;;;11.70;49.10;;;;;;5037417;28;20183;-48
2021/12/15 08:36:06;;;;;;;3.42;2.22;;;11.80;49.20;;;;;;5054511;28;20487;-48
2021/12/15 08:38:36;;;;;;;2.72;2.00;;;11.80;49.00;;;;;;5054672;28;20241;-48
2021/12/15 08:41:08;;;;;;;2.85;1.63;;;11.80;48.80;;;;;;5053715;28;20505;-49
2021/12/15 08:43:36;;;;;;;4.53;2.88;;;11.80;48.80;;;;;;5037712;28;20229;-48
2021/12/15 08:46:06;;;;;;;2.00;1.25;;;11.90;49.10;;;;;;5053400;28;20206;-48
2021/12/15 08:48:35;;;;;;;3.50;2.00;;;11.90;49.20;;;;;;5056787;28;20165;-48
2021/12/15 08:51:06;;;;;;;3.75;1.85;;;11.90;49.10;;;;;;5058569;28;20543;-48
2021/12/15 08:53:34;;;;;;;3.17;1.77;;;11.90;49.00;;;;;;5058543;28;20165;-48
2021/12/15 08:56:02;;;;;;;2.35;1.15;;;12.00;49.10;;;;;;5058464;28;20535;-48
2021/12/15 08:58:30;;;;;;;4.28;3.08;;;12.00;48.70;;;;;;5058361;28;20174;-48
2021/12/15 09:00:59;;;;;;;4.53;1.75;;;12.00;48.80;;;;;;5058555;28;20263;-49
2021/12/15 09:03:28;;;;;;;2.00;1.30;;;12.10;48.40;;;;;;5058304;28;20618;-48
2021/12/15 09:05:58;;;;;;;1.95;1.15;;;12.10;48.90;;;;;;5057409;28;20252;-49
2021/12/15 09:08:26;;;;;;;2.00;1.30;;;12.10;48.90;;;;;;5057425;28;20506;-48
2021/12/15 09:10:56;;;;;;;4.53;1.67;;;12.10;48.90;;;;;;5058121;28;20502;-49
2021/12/15 09:13:30;;;;;;;4.82;2.20;;;12.10;49.00;;;;;;5057242;28;20197;-49
2021/12/15 09:16:00;;;;;;;2.88;1.42;;;12.00;48.70;;;;;;5058023;28;20476;-48
2021/12/15 09:18:28;;;;;;;1.70;0.80;;;12.00;48.80;;;;;;5057051;28;20511;-48
2021/12/15 09:20:55;;;;;;;3.30;1.55;;;12.10;48.50;;;;;;5057951;28;20162;-49
2021/12/15 09:23:23;;;;;;;2.75;1.88;;;12.00;48.40;;;;;;5057866;28;20613;-48
2021/12/15 09:25:51;;;;;;;2.88;1.17;;;12.10;48.70;;;;;;5058105;28;20196;-48
2021/12/15 09:28:19;;;;;;;3.55;1.98;;;12.10;48.60;;;;;;5057048;28;20185;-49
2021/12/15 09:30:49;;;;;;;3.25;1.05;;;12.10;48.60;;;;;;5040552;28;20177;-48
2021/12/15 09:33:25;;;;;;;4.78;2.15;;;12.10;48.70;;;;;;5040362;28;20188;-48
2021/12/15 09:35:53;;;;;;;1.80;1.25;;;12.20;48.80;;;;;;5056929;28;20145;-49
2021/12/15 09:38:23;;;;;;;2.20;0.82;;;12.30;48.80;;;;;;5056772;28;20511;-49
2021/12/15 09:40:54;;;;;;;11.02;1.88;;;12.30;48.80;;;;;;5057985;28;20153;-49
2021/12/15 09:43:26;;;;;;;2.30;1.63;;;12.40;48.70;;;;;;5057781;28;20460;-48
2021/12/15 09:46:02;;;;;;;3.50;2.45;;;12.40;48.40;;;;;;5044388;28;20218;-48
2021/12/15 09:57:13;;;;;;;3.28;1.55;;;12.30;48.20;;;;;;5037582;28;20634;-48
2021/12/15 10:02:45;;;;;;;3.78;2.20;;;12.40;48.50;;;;;;5022953;28;20161;-48
2021/12/15 10:05:28;;;;;;;3.25;1.55;;;12.40;48.50;;;;;;5022773;28;20169;-48
2021/12/15 10:11:14;;;;;;;4.22;1.95;;;12.40;48.40;;;;;;5037240;28;20270;-49
2021/12/15 10:19:34;;;;;;;2.60;1.30;;;12.50;48.20;;;;;;5037404;28;20188;-48
2021/12/15 10:22:23;;;;;;;5.03;2.15;;;12.60;48.30;;;;;;5036864;28;20158;-48
2021/12/15 10:24:58;;;;;;;2.55;1.00;;;12.70;48.30;;;;;;5037121;28;20166;-49
2021/12/15 10:27:40;;;;;;;4.35;1.45;;;12.70;48.40;;;;;;5020016;28;20184;-49
2021/12/15 10:30:38;;;;;;;3.45;1.92;;;12.70;47.80;;;;;;5020383;28;20582;-49
2021/12/15 10:33:22;;;;;;;2.13;1.83;;;12.70;48.10;;;;;;5036583;28;20190;-49
2021/12/15 10:36:04;;;;;;;3.25;2.05;;;12.70;48.10;;;;;;5036829;28;20189;-49
2021/12/15 10:38:43;;;;;;;3.03;1.75;;;12.80;48.20;;;;;;5036544;28;20277;-49
2021/12/15 10:41:20;;;;;;;2.65;1.33;;;12.80;48.00;;;;;;5003974;28;20166;-49
2021/12/15 10:43:53;;;;;;;3.30;1.92;;;12.90;48.30;;;;;;5036953;28;20177;-48
2021/12/15 10:46:28;;;;;;;4.75;1.30;;;12.90;48.20;;;;;;5036485;28;20584;-49
2021/12/15 10:48:59;;;;;;;3.03;1.80;;;13.00;48.20;;;;;;5019292;28;20579;-49
2021/12/15 10:51:35;;;;;;;3.28;1.85;;;13.00;47.50;;;;;;5019527;28;20166;-49
2021/12/15 10:54:14;;;;;;;2.75;1.00;;;13.00;47.80;;;;;;5036818;28;20162;-49
2021/12/15 10:57:04;;;;;;;2.20;1.17;;;13.00;47.30;;;;;;5036336;28;20178;-49
2021/12/15 10:59:35;;;;;;;4.53;1.75;;;13.00;47.60;;;;;;5021646;28;20182;-49
2021/12/15 11:02:21;;;;;;;2.53;1.85;;;13.00;47.60;;;;;;5003577;28;20236;-49
2021/12/15 11:04:57;;;;;;;2.85;1.15;;;13.00;48.10;;;;;;5020972;28;20603;-48
2021/12/15 11:07:39;;;;;;;2.35;1.35;;;13.10;48.20;;;;;;5036330;28;20158;-49
2021/12/15 11:10:17;;;;;;;2.78;1.40;;;13.10;47.90;;;;;;5035092;28;20170;-49
2021/12/15 11:12:51;;;;;;;3.60;1.80;;;13.00;46.80;;;;;;5035894;28;20162;-49
2021/12/15 11:15:22;;;;;;;2.83;2.10;;;13.00;47.80;;;;;;5019024;28;20163;-49
2021/12/15 11:17:52;;;;;;;1.25;0.70;;;13.00;47.80;;;;;;5019103;28;20196;-49
2021/12/15 11:20:23;;;;;;;2.25;1.48;;;13.00;47.10;;;;;;5018606;28;20177;-48
2021/12/15 11:22:54;;;;;;;4.90;3.05;;;12.90;47.90;;;;;;5035863;28;20623;-48
2021/12/15 11:25:36;;;;;;;3.08;1.63;;;12.90;48.00;;;;;;5018476;28;20235;-49
2021/12/15 11:28:30;;;;;;;2.63;1.67;;;13.00;48.00;;;;;;5035791;28;20599;-48
2021/12/15 11:31:13;;;;;;;2.88;1.67;;;13.10;47.90;;;;;;5035767;28;20174;-48
2021/12/15 11:33:52;;;;;;;2.13;1.58;;;13.10;48.00;;;;;;5035676;28;20193;-48
2021/12/15 11:36:32;;;;;;;3.08;1.58;;;13.10;48.00;;;;;;5035616;28;20165;-49
2021/12/15 11:39:08;;;;;;;1.20;0.65;;;13.10;47.60;;;;;;5035432;28;20213;-49
2021/12/15 11:41:42;;;;;;;3.15;1.50;;;13.00;47.70;;;;;;5018675;28;20184;-48
2021/12/15 11:44:12;;;;;;;2.85;1.40;;;13.10;47.90;;;;;;5035415;28;20534;-48
2021/12/15 11:46:52;;;;;;;2.08;1.45;;;13.10;48.00;;;;;;5035423;28;20252;-48
2021/12/15 11:49:23;;;;;;;3.17;2.20;;;13.10;47.80;;;;;;5035265;28;20157;-48
2021/12/15 11:52:04;;;;;;;2.65;1.90;;;13.00;47.80;;;;;;5018432;28;20165;-49
2021/12/15 11:54:40;;;;;;;2.72;1.70;;;13.00;48.00;;;;;;5035147;28;20245;-48
2021/12/15 11:57:28;;;;;;;3.15;1.65;;;13.00;48.00;;;;;;5035214;28;20193;-49
2021/12/15 12:00:08;;;;;;;4.43;2.17;;;12.90;47.90;;;;;;5034888;28;20626;-49
2021/12/15 12:02:41;;;;;;;1.60;1.05;;;12.80;48.00;;;;;;5020047;28;20228;-49
2021/12/15 12:05:12;;;;;;;2.42;1.80;;;12.80;48.40;;;;;;5017831;28;20245;-48
2021/12/15 12:07:47;;;;;;;2.08;1.60;;;12.80;48.50;;;;;;5017824;28;20162;-48
2021/12/15 12:10:28;;;;;;;1.73;0.82;;;12.80;48.50;;;;;;5034904;28;20157;-48
2021/12/15 12:13:08;;;;;;;3.92;2.03;;;12.90;48.60;;;;;;5001749;28;20664;-48
2021/12/15 12:15:38;;;;;;;5.25;1.80;;;12.80;49.10;;;;;;5001883;28;20264;-49
2021/12/15 12:18:21;;;;;;;2.10;1.50;;;12.80;49.70;;;;;;5017864;28;20198;-48
2021/12/15 12:21:03;;;;;;;5.43;1.30;;;12.70;50.00;;;;;;5017598;28;20150;-48
2021/12/15 12:23:33;;;;;;;2.75;1.58;;;12.60;50.20;;;;;;5019747;28;20170;-49
2021/12/15 12:26:04;;;;;;;2.75;1.90;;;12.50;50.60;;;;;;5017472;28;20177;-48
2021/12/15 12:28:35;;;;;;;4.78;1.85;;;12.50;50.60;;;;;;5018185;28;20170;-48
2021/12/15 12:31:12;;;;;;;2.53;1.50;;;12.60;50.90;;;;;;5017547;28;20162;-48
2021/12/15 12:33:40;;;;;;;2.35;1.30;;;12.60;50.90;;;;;;5017579;28;20188;-49
2021/12/15 12:36:20;;;;;;;3.47;1.75;;;12.50;51.50;;;;;;5017637;28;20500;-48
2021/12/15 12:38:56;;;;;;;2.58;1.40;;;12.50;51.50;;;;;;5018308;28;20603;-48
2021/12/15 12:41:29;;;;;;;1.90;1.30;;;12.60;51.10;;;;;;5018082;28;20150;-48
2021/12/15 12:44:01;;;;;;;3.53;2.20;;;12.60;51.20;;;;;;5018243;28;20158;-48
2021/12/15 12:46:48;;;;;;;2.13;1.45;;;12.60;51.10;;;;;;5048584;28;20605;-48
2021/12/15 12:58:01;;;;;;;2.53;1.60;;;12.60;51.50;;;;;;5054617;28;20266;-49
2021/12/15 13:00:33;;;;;;;5.35;2.40;;;12.60;51.50;;;;;;5038492;28;20617;-49
2021/12/15 13:03:11;;;;;;;2.72;1.70;;;12.60;51.60;;;;;;5053380;28;20230;-48
2021/12/15 13:05:48;;;;;;;2.42;1.25;;;12.60;51.50;;;;;;5053671;28;20561;-48
2021/12/15 13:08:36;;;;;;;4.55;2.33;;;12.70;51.50;;;;;;5037926;28;20153;-48
2021/12/15 13:11:14;;;;;;;2.92;2.05;;;12.70;51.80;;;;;;5054487;28;20173;-48
2021/12/15 13:13:58;;;;;;;2.30;1.65;;;12.70;51.80;;;;;;5053598;28;20165;-49
2021/12/15 13:16:32;;;;;;;4.65;2.67;;;12.70;51.70;;;;;;5053329;28;20618;-48
2021/12/15 13:19:12;;;;;;;2.20;1.70;;;12.70;51.80;;;;;;5053452;28;20480;-49
2021/12/15 13:21:52;;;;;;;3.25;2.92;;;12.70;51.50;;;;;;5053520;28;20169;-48
2021/12/15 13:30:48;;;;;;;3.25;2.88;;;13.00;51.10;;;;;;5054211;28;20204;-49
2021/12/15 13:33:27;;;;;;;6.28;2.25;;;13.40;50.60;;;;;;5055481;28;20164;-49
2021/12/15 13:35:56;;;;;;;4.30;1.73;;;13.70;50.00;;;;;;5041979;28;20211;-48
2021/12/15 13:38:31;;;;;;;3.30;1.63;;;13.90;49.30;;;;;;5057803;28;20375;-49
2021/12/15 13:41:19;;;;;;;3.67;2.15;;;14.00;49.00;;;;;;5057573;28;20207;-49
2021/12/15 13:43:58;;;;;;;2.78;2.00;;;13.90;48.90;;;;;;5042253;28;20169;-48
2021/12/15 13:46:38;;;;;;;2.25;1.50;;;13.90;48.80;;;;;;5040620;28;20228;-49
2021/12/15 13:49:44;;;;;;;2.05;1.50;;;13.70;48.70;;;;;;5037920;28;20546;-48
2021/12/15 13:52:18;;;;;;;1.42;0.73;;;13.60;48.50;;;;;;5019858;28;20221;-48
2021/12/15 13:54:48;;;;;;;2.05;0.90;;;13.40;48.80;;;;;;5037499;28;20236;-49
2021/12/15 13:57:20;;;;;;;1.95;1.20;;;13.30;49.00;;;;;;5019925;28;20202;-48
2021/12/15 13:59:50;;;;;;;2.33;1.30;;;13.30;49.50;;;;;;5020035;28;20146;-48
2021/12/15 14:02:36;;;;;;;2.85;1.92;;;13.30;49.60;;;;;;5037253;28;20173;-49
2021/12/15 14:05:21;;;;;;;1.90;1.15;;;13.30;50.20;;;;;;5037453;28;20159;-49
2021/12/15 14:08:06;;;;;;;2.92;2.00;;;13.30;49.20;;;;;;5003874;28;20178;-48
2021/12/15 14:10:34;;;;;;;1.88;0.95;;;13.30;49.40;;;;;;5022099;28;20173;-49
2021/12/15 14:13:04;;;;;;;4.72;1.67;;;13.20;48.90;;;;;;5037082;28;20170;-49
2021/12/15 14:15:37;;;;;;;4.32;1.70;;;13.10;49.30;;;;;;5019805;28;20166;-48
2021/12/15 14:18:15;;;;;;;3.20;1.90;;;13.10;49.40;;;;;;5019353;28;20200;-48
2021/12/15 14:20:59;;;;;;;1.90;1.50;;;13.20;49.50;;;;;;5037132;28;20542;-48
2021/12/15 14:23:43;;;;;;;4.93;2.38;;;13.20;49.30;;;;;;5037080;28;20229;-49
2021/12/15 14:26:14;;;;;;;9.73;2.88;;;13.20;49.10;;;;;;5036989;28;20177;-48
2021/12/15 14:28:45;;;;;;;1.77;1.17;;;13.20;49.10;;;;;;5020342;28;20610;-48
2021/12/15 14:31:24;;;;;;;2.90;1.27;;;13.10;49.40;;;;;;5036865;28;20185;-49